createdAt,value
2018-11-21T00:02:25.856Z,4.07
2018-11-21T00:04:55.274Z,3.43
2018-11-21T00:07:26.274Z,3.07
2018-11-21T00:09:56.339Z,3.03
2018-11-21T00:12:46.553Z,3.90
2018-11-21T00:15:32.366Z,3.63
2018-11-21T00:18:02.303Z,3.20
2018-11-21T00:20:32.313Z,3.00
2018-11-21T00:23:19.902Z,3.67
2018-11-21T00:25:48.524Z,3.13
2018-11-21T00:28:23.932Z,3.60
2018-11-21T00:30:59.720Z,3.57
2018-11-21T00:33:23.855Z,3.37
2018-11-21T00:35:53.975Z,3.43
2018-11-21T00:38:23.932Z,4.17
2018-11-21T00:40:53.921Z,3.87
2018-11-21T00:43:23.937Z,3.13
2018-11-21T00:46:03.040Z,3.93
2018-11-21T00:48:33.021Z,2.90
2018-11-21T00:51:03.051Z,3.40
2018-11-21T00:53:45.423Z,3.70
2018-11-21T00:56:31.462Z,3.30
2018-11-21T00:59:01.484Z,3.60
2018-11-21T01:01:48.393Z,3.60
2018-11-21T01:04:19.903Z,3.33
2018-11-21T01:07:00.653Z,4.00
2018-11-21T01:09:30.601Z,3.43
2018-11-21T01:12:27.373Z,3.60
2018-11-21T01:15:10.752Z,3.50
2018-11-21T01:17:47.272Z,3.33
2018-11-21T01:20:19.342Z,3.30
2018-11-21T01:23:21.563Z,3.47
2018-11-21T01:25:53.776Z,2.90
2018-11-21T01:28:23.656Z,3.40
2018-11-21T01:30:53.554Z,3.60
2018-11-21T01:33:32.389Z,3.87
2018-11-21T01:36:28.575Z,3.50
2018-11-21T01:38:58.555Z,3.57
2018-11-21T01:41:28.564Z,3.47
2018-11-21T01:43:58.474Z,3.50
2018-11-21T01:49:40.095Z,3.50
2018-11-21T01:56:04.418Z,3.27
2018-11-21T01:58:27.832Z,3.23
2018-11-21T02:00:57.827Z,3.30
2018-11-21T02:03:31.289Z,3.73
2018-11-21T02:06:12.765Z,3.57
2018-11-21T02:08:42.733Z,3.37
2018-11-21T02:11:12.677Z,3.97
2018-11-21T02:13:42.640Z,3.37
2018-11-21T02:16:31.310Z,3.10
2018-11-21T02:19:01.334Z,3.07
2018-11-21T02:21:31.381Z,3.30
2018-11-21T02:24:06.868Z,3.33
2018-11-21T02:27:14.197Z,3.43
2018-11-21T02:29:43.067Z,3.03
2018-11-21T02:32:12.971Z,3.80
2018-11-21T02:38:34.925Z,3.33
2018-11-21T02:41:03.416Z,3.80
2018-11-21T02:44:03.086Z,3.33
2018-11-21T02:47:00.688Z,3.57
2018-11-21T02:49:28.882Z,3.40
2018-11-21T02:51:58.870Z,3.23
2018-11-21T02:54:28.835Z,3.23
2018-11-21T02:57:51.254Z,3.20
2018-11-21T03:00:27.824Z,3.37
2018-11-21T03:06:48.780Z,3.80
2018-11-21T03:09:17.746Z,3.60
2018-11-21T03:11:47.781Z,3.07
2018-11-21T03:14:42.087Z,3.17
2018-11-21T03:17:17.436Z,3.47
2018-11-21T03:20:06.148Z,3.40
2018-11-21T03:22:36.734Z,3.20
2018-11-21T03:25:06.713Z,3.40
2018-11-21T03:27:53.459Z,3.17
2018-11-21T03:30:23.364Z,3.30
2018-11-21T03:32:59.996Z,3.13
2018-11-21T03:35:30.017Z,3.67
2018-11-21T03:37:59.906Z,3.00
2018-11-21T03:40:29.838Z,3.40
2018-11-21T03:42:59.855Z,3.30
2018-11-21T03:45:32.413Z,3.53
2018-11-21T03:48:23.966Z,3.47
2018-11-21T03:50:51.627Z,3.03
2018-11-21T03:53:43.397Z,3.10
2018-11-21T03:56:56.045Z,3.60
2018-11-21T03:59:25.984Z,3.20
2018-11-21T04:01:55.889Z,3.13
2018-11-21T04:04:26.820Z,2.83
2018-11-21T04:07:37.039Z,3.20
2018-11-21T04:10:26.750Z,3.20
2018-11-21T04:12:56.659Z,3.17
2018-11-21T04:15:51.536Z,3.30
2018-11-21T04:18:39.040Z,3.30
2018-11-21T04:21:13.002Z,3.10
2018-11-21T04:24:07.669Z,3.40
2018-11-21T04:26:54.017Z,3.17
2018-11-21T04:29:35.499Z,3.30
2018-11-21T04:32:12.759Z,3.30
2018-11-21T04:34:49.401Z,3.43
2018-11-21T04:37:19.312Z,3.53
2018-11-21T04:39:57.061Z,3.23
2018-11-21T04:42:26.989Z,2.87
2018-11-21T04:44:56.910Z,3.53
2018-11-21T04:47:26.844Z,3.50
2018-11-21T04:49:56.726Z,3.20
2018-11-21T04:52:26.683Z,3.07
2018-11-21T04:55:17.153Z,3.10
2018-11-21T04:58:29.360Z,3.47
2018-11-21T05:00:59.250Z,3.40
2018-11-21T05:03:29.204Z,3.33
2018-11-21T05:05:59.117Z,3.10
2018-11-21T05:08:33.157Z,3.33
2018-11-21T05:11:02.053Z,3.83
2018-11-21T05:13:32.080Z,3.97
2018-11-21T05:16:25.405Z,3.20
2018-11-21T05:19:10.706Z,3.40
2018-11-21T05:21:40.758Z,3.40
2018-11-21T05:24:15.633Z,3.40
2018-11-21T05:27:32.625Z,3.53
2018-11-21T05:30:21.252Z,3.63
2018-11-21T05:32:51.118Z,3.50
2018-11-21T05:36:08.151Z,3.30
2018-11-21T05:38:46.881Z,3.90
2018-11-21T05:41:15.387Z,3.90
2018-11-21T05:43:45.380Z,4.37
2018-11-21T05:46:33.938Z,2.90
2018-11-21T05:49:28.025Z,2.63
2018-11-21T05:51:57.986Z,2.83
2018-11-21T05:54:44.865Z,2.83
2018-11-21T05:57:17.502Z,2.90
2018-11-21T05:59:57.001Z,2.77
2018-11-21T06:02:26.923Z,2.77
2018-11-21T06:05:08.061Z,3.03
2018-11-21T06:07:40.986Z,2.77
2018-11-21T06:10:15.461Z,2.80
2018-11-21T06:12:45.620Z,3.87
2018-11-21T06:15:28.367Z,3.90
2018-11-21T06:18:14.227Z,4.20
2018-11-21T06:21:58.607Z,3.80
2018-11-21T06:24:28.587Z,3.10
2018-11-21T06:27:25.626Z,3.20
2018-11-21T06:32:53.145Z,3.00
2018-11-21T06:35:32.004Z,3.03
2018-11-21T06:38:02.101Z,3.00
2018-11-21T06:40:32.153Z,3.20
2018-11-21T06:43:02.242Z,2.70
2018-11-21T06:45:37.099Z,2.83
2018-11-21T06:48:07.318Z,3.10
2018-11-21T06:50:37.337Z,3.27
2018-11-21T06:53:08.026Z,2.60
2018-11-21T06:55:53.180Z,2.67
2018-11-21T06:58:23.177Z,3.33
2018-11-21T07:04:26.000Z,3.27
2018-11-21T07:06:56.039Z,3.00
2018-11-21T07:09:55.338Z,2.60
2018-11-21T07:12:25.363Z,3.50
2018-11-21T07:14:55.504Z,3.27
2018-11-21T07:17:33.524Z,2.93
2018-11-21T07:20:45.124Z,3.40
2018-11-21T07:23:13.463Z,3.20
2018-11-21T07:26:06.080Z,3.40
2018-11-21T07:28:42.300Z,2.53
2018-11-21T07:32:03.621Z,2.90
2018-11-21T07:34:33.635Z,3.00
2018-11-21T07:37:18.804Z,2.57
2018-11-21T07:39:59.702Z,3.20
2018-11-21T07:42:35.320Z,3.20
2018-11-21T07:45:21.380Z,2.77
2018-11-21T07:48:20.164Z,3.30
2018-11-21T07:51:04.097Z,2.97
2018-11-21T07:53:50.824Z,3.00
2018-11-21T07:57:06.285Z,3.57
2018-11-21T08:03:25.277Z,3.23
2018-11-21T08:05:58.157Z,3.33
2018-11-21T08:09:04.339Z,3.27
2018-11-21T08:12:08.739Z,3.07
2018-11-21T08:15:19.237Z,3.00
2018-11-21T08:18:50.738Z,3.00
2018-11-21T08:22:20.258Z,3.20
2018-11-21T08:25:11.751Z,3.00
2018-11-21T08:28:27.639Z,2.57
2018-11-21T08:31:00.498Z,3.13
2018-11-21T08:34:34.859Z,2.73
2018-11-21T08:37:44.341Z,2.43
2018-11-21T08:43:29.850Z,3.13
2018-11-21T08:46:02.447Z,3.00
2018-11-21T08:48:46.218Z,2.80
2018-11-21T08:51:21.339Z,2.77
2018-11-21T08:57:34.958Z,3.20
2018-11-21T09:01:05.878Z,2.80
2018-11-21T09:03:51.359Z,2.93
2018-11-21T09:07:07.359Z,2.50
2018-11-21T09:10:05.386Z,3.53
2018-11-21T09:12:56.878Z,3.10
2018-11-21T09:20:29.759Z,2.83
2018-11-21T09:22:55.558Z,2.77
2018-11-21T09:25:47.939Z,2.77
2018-11-21T09:28:18.038Z,2.90
2018-11-21T09:32:17.897Z,2.77
2018-11-21T09:38:44.599Z,2.97
2018-11-21T09:41:46.207Z,2.60
2018-11-21T09:44:27.878Z,2.57
2018-11-21T09:47:24.398Z,2.70
2018-11-21T09:49:54.459Z,2.50
2018-11-21T09:53:12.798Z,2.60
2018-11-21T09:59:09.011Z,2.63
2018-11-21T10:02:23.210Z,2.43
2018-11-21T10:05:23.523Z,2.13
2018-11-21T10:08:50.286Z,2.83
2018-11-21T10:12:09.754Z,2.47
2018-11-21T10:18:00.560Z,2.70
2018-11-21T10:23:49.738Z,2.63
2018-11-21T10:26:24.237Z,2.63
2018-11-21T10:29:01.647Z,3.07
2018-11-21T10:31:59.355Z,2.50
2018-11-21T10:41:34.195Z,7.37
2018-11-21T10:44:34.414Z,7.67
2018-11-21T10:47:07.296Z,7.60
2018-11-21T10:49:37.462Z,7.20
2018-11-21T10:52:07.968Z,7.37
2018-11-21T10:54:38.090Z,7.27
2018-11-21T10:57:08.291Z,6.67
2018-11-21T10:59:38.464Z,6.60
2018-11-21T11:02:23.871Z,6.03
2018-11-21T11:05:18.738Z,6.70
2018-11-21T11:08:14.184Z,6.00
2018-11-21T11:10:58.296Z,5.63
2018-11-21T11:13:47.375Z,5.17
2018-11-21T11:16:35.471Z,5.00
2018-11-21T11:19:30.190Z,4.93
2018-11-21T11:22:30.009Z,4.73
2018-11-21T11:25:17.177Z,4.27
2018-11-21T11:28:01.668Z,4.63
2018-11-21T11:30:47.925Z,4.40
2018-11-21T11:33:54.826Z,4.50
2018-11-21T11:36:53.634Z,4.37
2018-11-21T11:39:54.032Z,4.30
2018-11-21T11:43:03.783Z,3.47
2018-11-21T11:45:51.170Z,3.80
2018-11-21T11:48:38.258Z,3.57
2018-11-21T11:51:25.460Z,3.60
2018-11-21T11:54:33.472Z,4.10
2018-11-21T11:57:30.628Z,3.73
2018-11-21T12:00:28.312Z,3.07
2018-11-21T12:03:19.250Z,3.13
2018-11-21T12:06:10.865Z,3.93
2018-11-21T12:08:57.027Z,3.20
2018-11-21T12:12:04.754Z,3.60
2018-11-21T12:14:53.722Z,3.77
2018-11-21T12:17:40.965Z,3.40
2018-11-21T12:20:29.042Z,3.70
2018-11-21T12:23:22.804Z,3.43
2018-11-21T12:26:11.674Z,3.30
2018-11-21T12:29:09.294Z,3.50
2018-11-21T12:32:12.963Z,3.60
2018-11-21T12:35:00.188Z,3.40
2018-11-21T12:37:47.265Z,3.30
2018-11-21T12:47:25.986Z,3.40
2018-11-21T12:50:20.749Z,3.73
2018-11-21T12:53:18.474Z,3.37
2018-11-21T12:56:07.229Z,4.63
2018-11-21T12:58:44.712Z,4.90
2018-11-21T13:01:45.516Z,5.10
2018-11-21T13:04:37.332Z,5.63
2018-11-21T13:07:26.124Z,5.57
2018-11-21T13:10:29.284Z,4.77
2018-11-21T13:13:16.177Z,5.20
2018-11-21T13:16:07.747Z,5.13
2018-11-21T13:19:02.787Z,4.80
2018-11-21T13:21:49.729Z,5.10
2018-11-21T13:24:41.448Z,5.10
2018-11-21T13:27:30.329Z,5.47
2018-11-21T13:30:22.878Z,4.83
2018-11-21T13:33:11.772Z,5.63
2018-11-21T13:36:09.486Z,5.50
2018-11-21T13:39:01.976Z,5.73
2018-11-21T13:42:01.848Z,5.23
2018-11-21T13:44:53.384Z,5.27
2018-11-21T13:47:36.706Z,4.80
2018-11-21T13:50:27.123Z,5.10
2018-11-21T13:53:10.920Z,5.30
2018-11-21T13:55:41.077Z,5.57
2018-11-21T13:58:11.208Z,5.63
2018-11-21T14:00:41.479Z,5.07
2018-11-21T14:03:11.886Z,5.43
2018-11-21T14:05:42.014Z,4.70
2018-11-21T14:08:12.211Z,5.07
2018-11-21T14:10:42.500Z,4.73
2018-11-21T14:13:40.680Z,5.00
2018-11-21T14:16:10.899Z,4.90
2018-11-21T14:18:41.065Z,5.20
2018-11-21T14:21:11.210Z,5.73
2018-11-21T14:23:41.339Z,5.00
2018-11-21T14:26:11.559Z,5.17
2018-11-21T14:28:41.510Z,4.70
2018-11-21T14:31:11.779Z,5.07
2018-11-21T14:33:41.966Z,5.13
2018-11-21T14:36:11.982Z,5.07
2018-11-21T14:38:43.156Z,5.17
2018-11-21T15:40:31.576Z,3.47
2018-11-21T15:43:01.619Z,4.00
2018-11-21T15:45:31.945Z,3.70
2018-11-21T15:48:02.792Z,4.20
2018-11-21T15:50:33.351Z,3.80
2018-11-21T15:53:03.476Z,3.70
2018-11-21T15:55:37.816Z,4.20
2018-11-21T15:58:08.179Z,4.47
2018-11-21T16:00:38.433Z,5.17
2018-11-21T16:03:10.410Z,5.87
2018-11-21T16:05:40.161Z,5.30
2018-11-21T16:08:10.546Z,4.97
2018-11-21T16:10:42.308Z,5.60
2018-11-21T16:13:12.443Z,4.60
2018-11-21T16:15:48.287Z,4.43
2018-11-21T16:18:19.800Z,4.63
2018-11-21T16:20:49.913Z,4.53
2018-11-21T16:23:20.175Z,4.53
2018-11-21T16:25:50.489Z,4.13
2018-11-21T16:28:20.680Z,3.47
2018-11-21T16:30:50.936Z,3.87
2018-11-21T16:33:21.222Z,4.00
2018-11-21T16:35:51.525Z,4.80
2018-11-21T16:38:21.776Z,4.10
2018-11-21T16:40:52.037Z,3.77
2018-11-21T16:43:22.261Z,3.83
2018-11-21T16:47:25.116Z,4.10
2018-11-21T16:49:09.917Z,4.30
2018-11-21T16:51:40.168Z,3.90
2018-11-21T16:54:11.897Z,4.10
2018-11-21T16:56:41.934Z,4.47
2018-11-21T16:59:12.081Z,4.30
2018-11-21T17:01:42.182Z,4.07
2018-11-21T17:04:12.392Z,4.03
2018-11-21T17:06:42.580Z,3.47
2018-11-21T17:09:14.249Z,4.30
2018-11-21T17:12:29.444Z,4.60
2018-11-21T17:14:59.553Z,4.37
2018-11-21T17:17:29.743Z,4.03
2018-11-21T17:20:00.016Z,4.73
2018-11-21T17:22:44.426Z,5.00
2018-11-21T17:25:18.460Z,4.80
2018-11-21T17:27:49.078Z,5.10
2018-11-21T17:30:20.265Z,4.63
2018-11-21T17:32:50.457Z,3.77
2018-11-21T17:35:21.353Z,4.10
2018-11-21T17:37:51.767Z,4.20
2018-11-21T17:40:40.117Z,4.30
2018-11-21T17:43:10.135Z,3.60
2018-11-21T17:45:40.074Z,4.20
2018-11-21T17:48:10.128Z,4.17
2018-11-21T17:50:40.173Z,3.80
2018-11-21T17:53:35.685Z,3.87
2018-11-21T17:56:05.926Z,4.23
2018-11-21T17:58:35.860Z,4.10
2018-11-21T18:01:05.900Z,3.60
2018-11-21T18:03:35.976Z,3.30
2018-11-21T18:06:06.067Z,3.63
2018-11-21T18:08:36.115Z,3.73
2018-11-21T18:11:06.471Z,4.27
2018-11-21T18:13:36.709Z,3.80
2018-11-21T18:16:06.800Z,3.83
2018-11-21T18:18:36.875Z,3.50
2018-11-21T18:21:07.227Z,3.50
2018-11-21T18:23:48.002Z,3.50
2018-11-21T18:26:18.060Z,3.63
2018-11-21T18:28:49.035Z,3.63
2018-11-21T18:31:19.002Z,3.50
2018-11-21T18:33:49.038Z,3.60
2018-11-21T18:36:22.191Z,3.47
2018-11-21T18:38:52.173Z,3.80
2018-11-21T18:41:22.188Z,3.50
2018-11-21T18:43:52.160Z,3.43
2018-11-21T18:46:22.233Z,3.30
2018-11-21T18:48:52.363Z,3.00
2018-11-21T18:51:22.414Z,3.47
2018-11-21T18:53:54.844Z,3.43
2018-11-21T18:56:46.096Z,3.40
2018-11-21T19:00:01.108Z,3.30
2018-11-21T19:02:31.317Z,3.17
2018-11-21T19:05:15.835Z,3.03
2018-11-21T19:07:45.955Z,3.10
2018-11-21T19:10:16.385Z,3.80
2018-11-21T19:12:46.469Z,3.43
2018-11-21T19:15:17.145Z,3.30
2018-11-21T19:17:47.084Z,2.77
2018-11-21T19:20:18.550Z,3.10
2018-11-21T19:22:48.771Z,3.17
2018-11-21T19:25:18.729Z,3.50
2018-11-21T19:27:48.681Z,3.40
2018-11-21T19:30:19.698Z,2.90
2018-11-21T19:32:50.011Z,2.90
2018-11-21T19:35:22.441Z,3.43
2018-11-21T19:38:02.621Z,2.57
2018-11-21T19:40:31.360Z,2.87
2018-11-21T19:43:01.350Z,3.00
2018-11-21T19:45:34.232Z,19.30
2018-11-21T19:48:04.290Z,24.13
2018-11-21T19:50:34.366Z,19.60
2018-11-21T19:53:04.435Z,8.77
2018-11-21T19:55:35.301Z,8.90
2018-11-21T19:58:05.274Z,7.10
2018-11-21T20:00:36.526Z,6.57
2018-11-21T20:03:07.316Z,6.70
2018-11-21T20:05:41.452Z,6.53
2018-11-21T20:08:11.549Z,6.17
2018-11-21T20:10:41.575Z,6.83
2018-11-21T20:13:11.831Z,6.40
2018-11-21T20:15:41.844Z,6.63
2018-11-21T20:18:11.922Z,5.73
2018-11-21T20:20:41.935Z,6.50
2018-11-21T20:23:12.051Z,7.80
2018-11-21T20:25:42.080Z,16.17
2018-11-21T20:28:12.119Z,31.83
2018-11-21T20:30:42.665Z,37.23
2018-11-21T20:33:12.779Z,38.43
2018-11-21T20:35:42.794Z,44.10
2018-11-21T20:38:12.890Z,43.27
2018-11-21T20:40:42.950Z,53.93
2018-11-21T20:43:13.026Z,68.73
2018-11-21T20:45:42.897Z,78.47
2018-11-21T20:48:12.898Z,75.57
2018-11-21T20:50:42.889Z,73.00
2018-11-21T20:53:12.909Z,69.90
2018-11-21T20:55:43.406Z,69.97
2018-11-21T20:58:13.366Z,67.10
2018-11-21T21:00:43.268Z,65.17
2018-11-21T21:03:13.267Z,65.50
2018-11-21T21:05:43.222Z,64.63
2018-11-21T21:08:13.157Z,61.57
2018-11-21T21:10:47.317Z,62.00
